Main page
METAR-TAF:

METAR-TAF

Airports :

Chapleau Airport

Chapleau, Ontario, Canada

latitude: 47-49N, longitude: 083-21W, elevation: 447 m

Current weather observation

The report was made 4 hours and 29 minutes ago, at 01:00 UTC
Wind 9 kt from the South/Southwest
Temperature 10°C
Humidity 37%
Pressure 1005 hPa
Visibility: 24.1 km
Broken clouds at a height of 13000 ft

METAR: CYLD 230100Z 21009KT 15SM BKN130 10/M04 A2967 RMK AC7 LAST STFD OBS NEXT 23 1000 UTC SLP066

Time: 01:29 (05:29 UTC)

Forecast

The report was made 9 hours and 49 minutes ago, at 19:40 UTC
Forecast valid from 22 at 20 UTC to 23 at 01 UTC
Wind 15 kt from the West/Southwest with gusts up to 27 kt
Visibility: 10 km
Few clouds at a height of 6000 ft
Scattered clouds at a height of 12000 ft
Becoming
from 22 at 22 UTC to 22 at 24 UTC
Wind 10 kt from the Southwest

TAF: CYLD 221940Z 2220/2301 24015G27KT P6SM FEW060 SCT120 BECMG 2222/2224 22010KT RMK NXT FCST BY 231200Z

Weather observations and forecasts of more than 4000 airports (METAR and TAF reports).

The available stations are represented by yellow and red dots on the map.

Hover mouse over dot to see the name of the station.

Then click to see weather observations and forecasts.

To change the map : click on the green buttons with a black cross to zoom in, on the green button with a dash to zoom out, or on the green arrows for adjacent maps.


METAR-TAF: